createdAt,value
2022-08-09T00:00:00.900Z,17.50
2022-08-09T00:02:34.513Z,17.50
2022-08-09T00:06:19.252Z,17.50
2022-08-09T00:07:54.266Z,17.50
2022-08-09T00:10:24.480Z,17.40
2022-08-09T00:12:53.560Z,17.30
2022-08-09T00:15:35.418Z,17.40
2022-08-09T00:18:12.558Z,17.40
2022-08-09T00:20:49.853Z,17.50
2022-08-09T00:23:56.506Z,17.50
2022-08-09T00:26:11.124Z,17.40
2022-08-09T00:28:40.669Z,17.50
2022-08-09T00:31:56.996Z,17.60
2022-08-09T00:33:58.282Z,17.60
2022-08-09T00:36:30.771Z,17.60
2022-08-09T00:39:00.778Z,17.50
2022-08-09T00:44:16.957Z,17.50
2022-08-09T00:44:26.604Z,17.50
2022-08-09T00:47:01.684Z,17.70
2022-08-09T00:49:34.743Z,17.70
2022-08-09T00:52:15.993Z,17.60
2022-08-09T00:54:48.548Z,17.70
2022-08-09T00:57:24.672Z,17.70
2022-08-09T01:00:20.428Z,17.60
2022-08-09T01:02:52.891Z,17.70
2022-08-09T01:05:53.193Z,17.70
2022-08-09T01:08:26.974Z,17.80
2022-08-09T01:11:04.714Z,17.70
2022-08-09T01:13:59.494Z,17.70
2022-08-09T01:16:35.284Z,17.70
2022-08-09T01:19:40.008Z,17.80
2022-08-09T01:22:32.451Z,17.80
2022-08-09T01:25:06.998Z,17.70
2022-08-09T01:27:37.764Z,17.60
2022-08-09T01:30:08.776Z,17.50
2022-08-09T01:32:58.982Z,17.50
2022-08-09T01:35:38.725Z,17.40
2022-08-09T01:38:15.114Z,17.40
2022-08-09T01:40:52.935Z,17.30
2022-08-09T01:43:50.506Z,17.30
2022-08-09T01:46:24.005Z,17.20
2022-08-09T01:48:56.725Z,17.10
2022-08-09T01:51:26.097Z,17.20
2022-08-09T01:53:57.860Z,17.10
2022-08-09T01:56:28.990Z,17.20
2022-08-09T01:58:59.700Z,17.20
2022-08-09T02:01:30.646Z,17.20
2022-08-09T02:04:18.548Z,17.20
2022-08-09T02:07:04.059Z,17.10
2022-08-09T02:09:42.084Z,17.20
2022-08-09T02:12:13.387Z,17.20
2022-08-09T02:14:51.678Z,17.30
2022-08-09T02:18:00.749Z,17.20
2022-08-09T02:20:15.911Z,17.00
2022-08-09T02:23:00.631Z,16.80
2022-08-09T02:25:33.061Z,16.70
2022-08-09T02:28:17.943Z,16.80
2022-08-09T02:30:49.976Z,16.70
2022-08-09T02:33:22.969Z,16.60
2022-08-09T02:36:03.368Z,16.60
2022-08-09T02:38:35.996Z,16.60
2022-08-09T02:41:09.105Z,16.60
2022-08-09T02:43:53.850Z,16.60
2022-08-09T02:46:28.601Z,16.50
2022-08-09T02:49:01.656Z,16.40
2022-08-09T02:51:37.083Z,16.50
2022-08-09T02:54:13.717Z,16.50
2022-08-09T02:56:48.655Z,16.60
2022-08-09T02:59:26.377Z,16.60
2022-08-09T03:02:09.697Z,16.50
2022-08-09T03:04:41.836Z,16.40
2022-08-09T03:07:12.263Z,16.40
2022-08-09T03:09:54.268Z,16.30
2022-08-09T03:12:26.024Z,16.30
2022-08-09T03:14:56.268Z,16.20
2022-08-09T03:17:27.603Z,16.20
2022-08-09T03:20:02.952Z,16.20
2022-08-09T03:22:41.954Z,16.30
2022-08-09T03:25:26.578Z,16.30
2022-08-09T03:28:04.814Z,16.30
2022-08-09T03:30:40.098Z,16.10
2022-08-09T03:33:19.146Z,15.90
2022-08-09T03:36:12.949Z,16.20
2022-08-09T03:38:41.982Z,16.60
2022-08-09T03:41:15.103Z,17.00
2022-08-09T03:44:03.624Z,17.30
2022-08-09T03:46:34.325Z,17.60
2022-08-09T03:49:08.821Z,17.80
2022-08-09T03:51:57.534Z,18.10
2022-08-09T03:54:31.775Z,18.20
2022-08-09T03:57:04.228Z,18.40
2022-08-09T03:59:53.240Z,18.60
2022-08-09T04:02:27.135Z,18.70
2022-08-09T04:05:00.861Z,18.80
2022-08-09T04:07:33.915Z,18.90
2022-08-09T04:10:20.975Z,19.00
2022-08-09T04:13:00.985Z,19.10
2022-08-09T04:16:18.721Z,19.10
2022-08-09T04:18:21.285Z,19.20
2022-08-09T04:20:52.125Z,19.30
2022-08-09T04:23:23.363Z,19.30
2022-08-09T04:25:54.103Z,19.40
2022-08-09T04:28:30.787Z,19.40
2022-08-09T04:31:10.071Z,19.50
2022-08-09T04:33:52.406Z,19.50
2022-08-09T04:36:28.339Z,19.50
2022-08-09T04:38:59.234Z,19.60
2022-08-09T04:41:32.228Z,19.60
2022-08-09T04:44:06.491Z,19.60
2022-08-09T04:46:58.314Z,19.70
2022-08-09T04:49:40.717Z,19.70
2022-08-09T04:52:18.639Z,19.70
2022-08-09T04:55:04.697Z,19.70
2022-08-09T04:57:58.969Z,19.80
2022-08-09T05:00:25.665Z,19.80
2022-08-09T05:03:30.025Z,19.80
2022-08-09T05:06:04.439Z,19.80
2022-08-09T05:08:34.929Z,20.00
2022-08-09T05:11:04.066Z,19.60
2022-08-09T05:13:38.838Z,19.30
2022-08-09T05:16:08.935Z,19.00
2022-08-09T05:18:57.923Z,18.70
2022-08-09T05:21:29.997Z,18.40
2022-08-09T05:24:07.191Z,18.30
2022-08-09T05:26:46.235Z,18.20
2022-08-09T05:29:21.595Z,18.10
2022-08-09T05:31:57.415Z,18.00
2022-08-09T05:34:31.245Z,17.90
2022-08-09T05:37:04.890Z,17.80
2022-08-09T05:39:42.636Z,17.70
2022-08-09T05:42:20.592Z,17.60
2022-08-09T05:44:51.994Z,17.80
2022-08-09T05:47:22.861Z,18.00
2022-08-09T05:50:28.090Z,18.40
2022-08-09T05:52:41.868Z,18.70
2022-08-09T05:55:20.739Z,19.20
2022-08-09T05:57:50.705Z,19.70
2022-08-09T06:00:26.266Z,20.10
2022-08-09T06:02:57.358Z,20.40
2022-08-09T06:05:30.790Z,20.70
2022-08-09T06:08:19.831Z,21.00
2022-08-09T06:10:56.340Z,21.30
2022-08-09T06:13:28.630Z,21.60
2022-08-09T06:16:04.744Z,21.90
2022-08-09T06:18:34.706Z,22.30
2022-08-09T06:21:04.351Z,22.60
2022-08-09T06:23:55.495Z,22.80
2022-08-09T06:26:28.680Z,23.10
2022-08-09T06:29:00.591Z,23.30
2022-08-09T06:31:40.458Z,23.40
2022-08-09T06:34:23.428Z,23.50
2022-08-09T06:36:57.501Z,23.60
2022-08-09T06:39:48.396Z,23.80
2022-08-09T06:42:20.210Z,23.90
2022-08-09T06:44:54.594Z,24.20
2022-08-09T06:47:23.819Z,24.30
2022-08-09T06:50:14.196Z,24.50
2022-08-09T06:52:47.250Z,24.50
2022-08-09T06:55:18.757Z,24.60
2022-08-09T06:58:03.308Z,24.60
2022-08-09T07:00:49.220Z,24.80
2022-08-09T07:03:28.216Z,25.00
2022-08-09T07:06:04.576Z,25.10
2022-08-09T07:08:37.402Z,25.20
2022-08-09T07:11:08.305Z,25.20
2022-08-09T07:13:45.294Z,25.20
2022-08-09T07:16:43.014Z,25.20
2022-08-09T07:19:23.191Z,25.20
2022-08-09T07:21:56.957Z,25.20
2022-08-09T07:24:31.962Z,25.20
2022-08-09T07:27:02.231Z,25.40
2022-08-09T07:29:38.155Z,25.50
2022-08-09T07:32:11.569Z,25.70
2022-08-09T07:34:40.405Z,25.80
2022-08-09T07:37:15.825Z,25.70
2022-08-09T07:39:45.223Z,25.80
2022-08-09T07:42:15.031Z,26.00
2022-08-09T07:44:51.890Z,26.10
2022-08-09T07:47:23.375Z,26.30
2022-08-09T07:50:07.886Z,26.30
2022-08-09T07:52:38.307Z,26.30
2022-08-09T07:55:09.431Z,26.30
2022-08-09T07:57:47.293Z,26.30
2022-08-09T08:00:20.605Z,26.20
2022-08-09T08:03:08.279Z,26.20
2022-08-09T08:05:53.511Z,26.10
2022-08-09T08:09:01.418Z,26.20
2022-08-09T08:12:09.661Z,26.30
2022-08-09T08:14:01.504Z,26.50
2022-08-09T08:16:32.467Z,26.50
2022-08-09T08:19:02.956Z,26.40
2022-08-09T08:21:33.291Z,26.30
2022-08-09T08:24:11.805Z,26.20
2022-08-09T08:26:52.459Z,26.00
2022-08-09T08:29:28.020Z,25.90
2022-08-09T08:32:04.533Z,25.80
2022-08-09T08:34:36.506Z,25.70
2022-08-09T08:37:06.277Z,25.70
2022-08-09T08:39:44.607Z,25.60
2022-08-09T08:42:13.301Z,25.50
2022-08-09T08:44:43.683Z,25.50
2022-08-09T08:47:15.847Z,25.50
2022-08-09T08:49:47.888Z,25.60
2022-08-09T08:52:58.378Z,25.50
2022-08-09T08:55:11.298Z,25.50
2022-08-09T08:57:43.977Z,25.50
2022-08-09T09:00:27.905Z,25.50
2022-08-09T09:03:11.769Z,25.50
2022-08-09T09:05:59.593Z,25.50
2022-08-09T09:08:37.980Z,25.50
2022-08-09T09:11:17.156Z,25.40
2022-08-09T09:13:55.232Z,25.30
2022-08-09T09:16:31.204Z,25.30
2022-08-09T09:19:36.979Z,25.30
2022-08-09T09:22:03.830Z,25.30
2022-08-09T09:24:34.700Z,25.30
2022-08-09T09:27:04.306Z,25.40
2022-08-09T09:29:58.203Z,25.40
2022-08-09T09:32:32.323Z,25.50
2022-08-09T09:35:07.509Z,25.50
2022-08-09T09:37:40.460Z,25.50
2022-08-09T09:40:17.515Z,25.40
2022-08-09T09:42:57.832Z,25.50
2022-08-09T09:45:29.341Z,25.50
2022-08-09T09:48:04.979Z,25.50
2022-08-09T09:50:50.949Z,25.50
2022-08-09T09:53:21.378Z,25.40
2022-08-09T09:56:07.814Z,25.50
2022-08-09T09:58:50.112Z,25.50
2022-08-09T10:01:31.085Z,25.50
2022-08-09T10:04:15.871Z,25.60
2022-08-09T10:06:52.131Z,25.70
2022-08-09T10:09:24.066Z,25.60
2022-08-09T10:12:12.435Z,25.70
2022-08-09T10:14:48.707Z,25.70
2022-08-09T10:17:40.407Z,25.70
2022-08-09T10:20:27.341Z,25.70
2022-08-09T10:23:17.358Z,25.70
2022-08-09T10:26:07.755Z,25.70
2022-08-09T10:28:38.729Z,25.70
2022-08-09T10:34:09.951Z,25.70
2022-08-09T10:36:50.240Z,25.70
2022-08-09T10:39:20.830Z,25.80
2022-08-09T10:41:49.665Z,25.80
2022-08-09T10:44:21.946Z,25.90
2022-08-09T10:48:12.084Z,25.90
2022-08-09T10:50:09.978Z,25.80
2022-08-09T10:52:57.869Z,25.80
2022-08-09T10:55:55.198Z,25.70
2022-08-09T10:58:39.345Z,25.90
2022-08-09T11:03:18.063Z,25.90
2022-08-09T11:04:32.739Z,25.90
2022-08-09T11:07:27.557Z,26.00
2022-08-09T11:10:16.373Z,26.10
2022-08-09T11:13:49.063Z,26.10
2022-08-09T11:16:35.615Z,26.20
2022-08-09T11:19:09.303Z,26.10
2022-08-09T11:22:05.338Z,26.00
2022-08-09T11:25:08.826Z,26.00
2022-08-09T11:28:14.524Z,25.90
2022-08-09T11:30:35.924Z,25.90
2022-08-09T11:33:07.154Z,25.90
2022-08-09T11:35:50.324Z,25.90
2022-08-09T11:38:28.681Z,26.00
2022-08-09T11:41:37.983Z,26.00
2022-08-09T11:44:11.855Z,26.00
2022-08-09T11:46:55.024Z,26.10
2022-08-09T11:50:53.704Z,26.10
2022-08-09T11:53:57.701Z,26.20
2022-08-09T11:56:41.788Z,26.20
2022-08-09T11:59:12.262Z,26.30
2022-08-09T12:02:34.039Z,26.40
2022-08-09T12:04:38.086Z,26.40
2022-08-09T12:07:08.379Z,26.50
2022-08-09T12:09:37.752Z,26.50
2022-08-09T12:12:12.315Z,26.50
2022-08-09T12:15:07.715Z,26.50
2022-08-09T12:17:42.133Z,26.60
2022-08-09T12:20:21.760Z,26.60
2022-08-09T12:22:56.327Z,26.60
2022-08-09T12:25:35.894Z,26.60
2022-08-09T12:29:13.368Z,26.70
2022-08-09T12:31:01.015Z,26.70
2022-08-09T12:33:51.195Z,26.70
2022-08-09T12:36:31.421Z,26.80
2022-08-09T12:39:02.427Z,26.70
2022-08-09T12:41:38.905Z,26.80
2022-08-09T12:44:10.134Z,26.90
2022-08-09T12:46:41.781Z,26.90
2022-08-09T12:49:12.687Z,26.90
2022-08-09T12:52:00.239Z,26.90
2022-08-09T12:54:31.386Z,26.90
2022-08-09T12:57:00.764Z,27.00
2022-08-09T12:59:40.043Z,27.00
2022-08-09T13:02:22.116Z,27.00
2022-08-09T13:05:02.344Z,26.90
2022-08-09T13:07:51.004Z,27.00
2022-08-09T13:10:21.083Z,26.90
2022-08-09T13:13:10.903Z,26.90
2022-08-09T13:15:53.506Z,26.90
2022-08-09T13:18:27.303Z,26.90
2022-08-09T13:22:34.282Z,26.90
2022-08-09T13:24:42.392Z,27.00
2022-08-09T13:26:38.932Z,27.00
2022-08-09T13:29:09.722Z,27.10
2022-08-09T13:32:17.164Z,27.10
2022-08-09T13:34:46.326Z,27.10
2022-08-09T13:37:24.600Z,27.00
2022-08-09T13:41:50.814Z,27.00
2022-08-09T13:42:55.644Z,27.00
2022-08-09T13:45:31.780Z,27.00
2022-08-09T13:48:01.180Z,27.10
2022-08-09T13:50:31.851Z,27.10
2022-08-09T13:53:00.463Z,27.10
2022-08-09T13:55:31.076Z,27.10
2022-08-09T13:57:59.791Z,27.10
2022-08-09T14:00:30.489Z,27.10
2022-08-09T14:03:03.305Z,27.10
2022-08-09T14:05:58.778Z,27.10
2022-08-09T14:08:29.250Z,27.10
2022-08-09T14:11:01.355Z,27.10
2022-08-09T14:14:24.562Z,27.10
2022-08-09T14:16:22.475Z,27.20
2022-08-09T14:18:58.364Z,27.20
2022-08-09T14:21:29.255Z,27.10
2022-08-09T14:24:10.022Z,27.10
2022-08-09T14:26:40.556Z,27.10
2022-08-09T14:30:18.914Z,27.20
2022-08-09T14:32:04.613Z,27.10
2022-08-09T14:34:41.133Z,27.10
2022-08-09T14:37:10.228Z,27.10
2022-08-09T14:39:47.316Z,27.10
2022-08-09T14:42:40.518Z,27.10
2022-08-09T14:46:39.965Z,27.10
2022-08-09T14:48:02.122Z,27.00
2022-08-09T14:50:34.103Z,27.10
2022-08-09T14:53:11.235Z,27.10
2022-08-09T14:55:42.160Z,27.10
2022-08-09T14:58:17.955Z,27.10
2022-08-09T15:00:48.231Z,27.00
2022-08-09T15:03:20.086Z,27.00
2022-08-09T15:05:56.735Z,27.00
2022-08-09T15:08:30.471Z,27.00
2022-08-09T15:11:01.181Z,27.00
2022-08-09T15:13:48.288Z,27.00
2022-08-09T15:16:31.378Z,27.10
2022-08-09T15:19:15.952Z,27.00
2022-08-09T15:21:57.883Z,27.00
2022-08-09T15:24:33.693Z,27.10
2022-08-09T15:27:02.306Z,27.10
2022-08-09T15:30:59.387Z,27.10
2022-08-09T15:32:35.768Z,27.10
2022-08-09T15:35:40.157Z,27.10
2022-08-09T15:38:11.140Z,27.10
2022-08-09T15:40:43.776Z,27.10
2022-08-09T15:43:13.179Z,27.00
2022-08-09T15:46:07.382Z,27.00
2022-08-09T15:48:32.503Z,27.10
2022-08-09T15:51:01.763Z,27.00
2022-08-09T15:54:05.359Z,27.00
2022-08-09T15:56:21.546Z,26.90
2022-08-09T15:58:58.185Z,26.90
2022-08-09T16:01:31.434Z,26.90
2022-08-09T16:04:04.248Z,26.90
2022-08-09T16:06:35.614Z,26.80
2022-08-09T16:09:06.391Z,26.90
2022-08-09T16:11:34.959Z,26.90
2022-08-09T16:14:07.006Z,26.80
2022-08-09T16:16:41.948Z,26.90
2022-08-09T16:19:15.210Z,26.80
2022-08-09T16:21:48.487Z,26.80
2022-08-09T16:24:33.083Z,26.70
2022-08-09T16:27:05.143Z,26.70
2022-08-09T16:29:37.903Z,26.70
2022-08-09T16:32:35.424Z,26.70
2022-08-09T16:35:04.270Z,26.60
2022-08-09T16:37:53.720Z,26.60
2022-08-09T16:40:40.434Z,26.60
2022-08-09T16:43:10.205Z,26.50
2022-08-09T16:45:44.285Z,26.40
2022-08-09T16:48:42.404Z,26.40
2022-08-09T16:51:07.901Z,26.40
2022-08-09T16:53:37.363Z,26.30
2022-08-09T16:56:10.444Z,26.20
2022-08-09T16:58:42.588Z,26.20
2022-08-09T17:01:23.432Z,26.00
2022-08-09T17:03:54.840Z,25.90
2022-08-09T17:06:29.010Z,25.90
2022-08-09T17:09:13.548Z,25.90
2022-08-09T17:11:52.659Z,25.80
2022-08-09T17:14:27.964Z,25.80
2022-08-09T17:16:59.424Z,25.70
2022-08-09T17:20:05.109Z,25.70
2022-08-09T17:22:33.973Z,25.60
2022-08-09T17:25:10.294Z,25.60
2022-08-09T17:27:49.428Z,25.50
2022-08-09T17:30:25.730Z,25.50
2022-08-09T17:33:00.619Z,25.40
2022-08-09T17:35:32.123Z,25.30
2022-08-09T17:38:11.943Z,25.30
2022-08-09T17:40:50.380Z,25.20
2022-08-09T17:43:38.022Z,25.10
2022-08-09T17:46:08.994Z,25.10
2022-08-09T17:48:51.672Z,25.00
2022-08-09T17:51:23.220Z,24.90
2022-08-09T17:53:54.804Z,24.80
2022-08-09T17:56:29.235Z,24.70
2022-08-09T17:59:11.937Z,24.60
2022-08-09T18:02:11.226Z,24.50
2022-08-09T18:04:33.587Z,24.50
2022-08-09T18:07:07.458Z,24.40
2022-08-09T18:09:41.339Z,24.40
2022-08-09T18:12:14.838Z,24.30
2022-08-09T18:14:53.535Z,24.30
2022-08-09T18:18:01.656Z,24.20
2022-08-09T18:20:54.578Z,24.10
2022-08-09T18:23:05.647Z,24.00
2022-08-09T18:25:53.061Z,24.00
2022-08-09T18:30:41.927Z,23.80
2022-08-09T18:31:19.234Z,23.80
2022-08-09T18:34:00.783Z,23.70
2022-08-09T18:36:32.554Z,23.70
2022-08-09T18:39:07.267Z,23.60
2022-08-09T18:41:53.394Z,23.60
2022-08-09T18:44:25.481Z,23.50
2022-08-09T18:47:05.432Z,23.50
2022-08-09T18:49:43.864Z,23.50
2022-08-09T18:52:18.887Z,23.40
2022-08-09T18:55:05.801Z,23.40
2022-08-09T18:57:44.879Z,23.30
2022-08-09T19:00:20.025Z,23.20
2022-08-09T19:02:51.375Z,23.30
2022-08-09T19:05:41.458Z,23.10
2022-08-09T19:08:18.253Z,23.00
2022-08-09T19:11:04.976Z,22.90
2022-08-09T19:13:51.383Z,22.70
2022-08-09T19:16:21.176Z,22.60
2022-08-09T19:18:50.223Z,22.50
2022-08-09T19:21:19.073Z,22.30
2022-08-09T19:24:35.829Z,22.20
2022-08-09T19:26:57.592Z,22.10
2022-08-09T19:29:26.042Z,22.00
2022-08-09T19:31:59.869Z,21.80
2022-08-09T19:34:29.057Z,21.80
2022-08-09T19:36:58.648Z,21.60
2022-08-09T19:39:44.015Z,21.60
2022-08-09T19:42:19.199Z,21.50
2022-08-09T19:44:50.546Z,21.40
2022-08-09T19:47:23.451Z,21.30
2022-08-09T19:50:05.044Z,21.30
2022-08-09T19:52:49.586Z,21.20
2022-08-09T19:55:25.749Z,21.10
2022-08-09T19:58:00.999Z,21.10
2022-08-09T20:00:29.813Z,21.00
2022-08-09T20:04:18.235Z,21.00
2022-08-09T20:05:50.631Z,20.90
2022-08-09T20:08:33.516Z,20.80
2022-08-09T20:11:04.791Z,20.80
2022-08-09T20:13:42.177Z,20.80
2022-08-09T20:16:35.103Z,20.70
2022-08-09T20:19:47.491Z,20.60
2022-08-09T20:22:04.857Z,20.40
2022-08-09T20:24:40.934Z,20.30
2022-08-09T20:27:11.499Z,20.10
2022-08-09T20:29:44.415Z,20.00
2022-08-09T20:32:30.861Z,20.00
2022-08-09T20:35:02.919Z,20.00
2022-08-09T20:38:08.659Z,19.90
2022-08-09T20:40:27.302Z,19.70
2022-08-09T20:43:00.096Z,19.70
2022-08-09T20:46:00.840Z,19.60
2022-08-09T20:48:33.868Z,19.50
2022-08-09T20:51:03.791Z,19.40
2022-08-09T20:53:36.798Z,19.40
2022-08-09T20:56:08.814Z,19.30
2022-08-09T20:58:38.297Z,19.20
2022-08-09T21:01:33.650Z,19.20
2022-08-09T21:04:08.441Z,19.20
2022-08-09T21:06:53.837Z,19.00
2022-08-09T21:09:32.962Z,18.90
2022-08-09T21:14:48.304Z,18.80
2022-08-09T21:18:21.374Z,18.80
2022-08-09T21:20:25.258Z,18.70
2022-08-09T21:22:55.440Z,18.50
2022-08-09T21:25:55.371Z,18.50
2022-08-09T21:28:33.848Z,18.40
2022-08-09T21:31:16.386Z,18.30
2022-08-09T21:33:51.447Z,18.40
2022-08-09T21:36:22.987Z,18.40
2022-08-09T21:38:57.195Z,18.30
2022-08-09T21:42:05.478Z,18.40
2022-08-09T21:44:34.029Z,18.50
2022-08-09T21:47:05.754Z,18.70
2022-08-09T21:49:39.228Z,18.80
2022-08-09T21:52:14.724Z,18.90
2022-08-09T21:54:57.200Z,18.90
2022-08-09T21:57:38.249Z,19.00
2022-08-09T22:00:26.827Z,19.10
2022-08-09T22:03:04.882Z,19.10
2022-08-09T22:05:42.214Z,19.10
2022-08-09T22:08:14.844Z,19.10
2022-08-09T22:11:00.349Z,19.10
2022-08-09T22:13:35.526Z,19.00
2022-08-09T22:16:07.274Z,18.70
2022-08-09T22:18:37.454Z,18.60
2022-08-09T22:21:09.766Z,18.60
2022-08-09T22:23:59.549Z,18.60
2022-08-09T22:26:35.388Z,18.60
2022-08-09T22:29:09.197Z,18.50
2022-08-09T22:31:44.105Z,18.40
2022-08-09T22:34:20.482Z,18.30
2022-08-09T22:36:55.638Z,18.10
2022-08-09T22:39:57.319Z,18.10
2022-08-09T22:42:21.260Z,17.90
2022-08-09T22:48:04.505Z,17.80
2022-08-09T22:48:11.731Z,17.90
2022-08-09T22:50:29.709Z,17.90
2022-08-09T22:52:59.761Z,17.90
2022-08-09T22:56:06.161Z,17.90
2022-08-09T22:58:32.654Z,17.90
2022-08-09T23:01:03.574Z,18.00
2022-08-09T23:04:03.865Z,17.80
2022-08-09T23:06:34.838Z,17.80
2022-08-09T23:09:07.039Z,17.90
2022-08-09T23:11:35.786Z,17.70
2022-08-09T23:14:17.250Z,17.70
2022-08-09T23:16:46.553Z,17.80
2022-08-09T23:19:15.569Z,17.90
2022-08-09T23:21:44.160Z,17.90
2022-08-09T23:24:14.182Z,17.80
2022-08-09T23:26:42.786Z,17.90
2022-08-09T23:29:13.701Z,17.90
2022-08-09T23:31:42.685Z,18.00
2022-08-09T23:34:11.317Z,17.90
2022-08-09T23:36:39.884Z,17.90
2022-08-09T23:39:08.479Z,17.90
2022-08-09T23:41:38.493Z,17.80
2022-08-09T23:44:08.183Z,17.70
2022-08-09T23:46:36.715Z,17.70
2022-08-09T23:49:05.675Z,17.70
2022-08-09T23:51:34.170Z,17.80
2022-08-09T23:54:03.553Z,17.70
2022-08-09T23:56:53.582Z,17.70
2022-08-09T23:59:23.614Z,17.60
